sensor_id;sensor_type;location;lat;lon;timestamp;pressure;altitude;pressure_sealevel;temperature;humidity
50368;BME280;36281;34.132;-118.018;2023-02-13T00:01:44;99576.84;;;16.79;44.47
50368;BME280;36281;34.132;-118.018;2023-02-13T00:04:15;99573.88;;;16.75;44.35
50368;BME280;36281;34.132;-118.018;2023-02-13T00:06:44;99580.81;;;16.71;44.39
50368;BME280;36281;34.132;-118.018;2023-02-13T00:09:15;99587.38;;;16.59;43.70
50368;BME280;36281;34.132;-118.018;2023-02-13T00:11:44;99582.00;;;16.53;43.59
50368;BME280;36281;34.132;-118.018;2023-02-13T00:14:13;99572.59;;;16.46;43.19
50368;BME280;36281;34.132;-118.018;2023-02-13T00:16:42;99568.81;;;16.37;43.62
50368;BME280;36281;34.132;-118.018;2023-02-13T00:19:11;99570.63;;;16.31;43.54
50368;BME280;36281;34.132;-118.018;2023-02-13T00:21:41;99573.50;;;16.24;43.77
50368;BME280;36281;34.132;-118.018;2023-02-13T00:24:10;99578.50;;;16.16;44.34
50368;BME280;36281;34.132;-118.018;2023-02-13T00:26:39;99588.34;;;16.10;44.71
50368;BME280;36281;34.132;-118.018;2023-02-13T00:29:09;99590.97;;;16.05;44.58
50368;BME280;36281;34.132;-118.018;2023-02-13T00:31:37;99594.19;;;16.02;44.59
50368;BME280;36281;34.132;-118.018;2023-02-13T00:34:07;99597.34;;;15.99;44.17
50368;BME280;36281;34.132;-118.018;2023-02-13T00:36:36;99592.78;;;15.94;44.22
50368;BME280;36281;34.132;-118.018;2023-02-13T00:39:07;99601.59;;;15.95;44.57
50368;BME280;36281;34.132;-118.018;2023-02-13T00:41:36;99605.56;;;15.92;44.87
50368;BME280;36281;34.132;-118.018;2023-02-13T00:44:05;99594.84;;;15.87;44.79
50368;BME280;36281;34.132;-118.018;2023-02-13T00:46:34;99593.47;;;15.85;44.23
50368;BME280;36281;34.132;-118.018;2023-02-13T00:49:05;99600.13;;;15.82;44.28
50368;BME280;36281;34.132;-118.018;2023-02-13T00:51:34;99608.91;;;15.77;43.85
50368;BME280;36281;34.132;-118.018;2023-02-13T00:54:03;99609.91;;;15.71;43.95
50368;BME280;36281;34.132;-118.018;2023-02-13T00:56:34;99621.09;;;15.68;44.66
50368;BME280;36281;34.132;-118.018;2023-02-13T00:59:03;99637.38;;;15.67;44.97
50368;BME280;36281;34.132;-118.018;2023-02-13T01:01:32;99634.84;;;15.60;44.35
50368;BME280;36281;34.132;-118.018;2023-02-13T01:04:01;99633.50;;;15.58;44.13
50368;BME280;36281;34.132;-118.018;2023-02-13T01:06:30;99612.88;;;15.53;43.92
50368;BME280;36281;34.132;-118.018;2023-02-13T01:08:59;99616.31;;;15.48;44.14
50368;BME280;36281;34.132;-118.018;2023-02-13T01:11:30;99648.00;;;15.45;44.95
50368;BME280;36281;34.132;-118.018;2023-02-13T01:14:00;99654.66;;;15.42;45.60
50368;BME280;36281;34.132;-118.018;2023-02-13T01:16:30;99629.28;;;15.40;45.75
50368;BME280;36281;34.132;-118.018;2023-02-13T01:18:59;99636.97;;;15.36;45.78
50368;BME280;36281;34.132;-118.018;2023-02-13T01:21:28;99644.69;;;15.33;45.83
50368;BME280;36281;34.132;-118.018;2023-02-13T01:23:57;99638.47;;;15.27;46.42
50368;BME280;36281;34.132;-118.018;2023-02-13T01:26:26;99637.34;;;15.23;46.63
50368;BME280;36281;34.132;-118.018;2023-02-13T01:28:55;99650.63;;;15.18;47.03
50368;BME280;36281;34.132;-118.018;2023-02-13T01:31:29;99630.50;;;15.10;47.33
50368;BME280;36281;34.132;-118.018;2023-02-13T01:33:58;99621.63;;;15.05;47.58
50368;BME280;36281;34.132;-118.018;2023-02-13T01:36:27;99638.88;;;14.97;47.55
50368;BME280;36281;34.132;-118.018;2023-02-13T01:38:58;99650.75;;;14.89;48.68
50368;BME280;36281;34.132;-118.018;2023-02-13T01:41:27;99639.69;;;14.81;47.66
50368;BME280;36281;34.132;-118.018;2023-02-13T01:43:57;99631.06;;;14.73;48.14
50368;BME280;36281;34.132;-118.018;2023-02-13T01:46:32;99636.88;;;14.70;48.62
50368;BME280;36281;34.132;-118.018;2023-02-13T01:49:08;99640.06;;;14.67;48.96
50368;BME280;36281;34.132;-118.018;2023-02-13T01:51:39;99646.91;;;14.63;49.36
50368;BME280;36281;34.132;-118.018;2023-02-13T01:54:12;99660.38;;;14.57;49.89
50368;BME280;36281;34.132;-118.018;2023-02-13T01:56:44;99661.94;;;14.53;50.06
50368;BME280;36281;34.132;-118.018;2023-02-13T01:59:17;99666.94;;;14.49;50.44
50368;BME280;36281;34.132;-118.018;2023-02-13T02:01:49;99657.44;;;14.41;50.90
50368;BME280;36281;34.132;-118.018;2023-02-13T02:04:21;99663.28;;;14.38;51.34
50368;BME280;36281;34.132;-118.018;2023-02-13T02:06:53;99670.94;;;14.35;51.51
50368;BME280;36281;34.132;-118.018;2023-02-13T02:09:27;99659.13;;;14.31;52.36
50368;BME280;36281;34.132;-118.018;2023-02-13T02:12:01;99662.53;;;14.26;52.75
50368;BME280;36281;34.132;-118.018;2023-02-13T02:14:34;99657.69;;;14.23;53.30
50368;BME280;36281;34.132;-118.018;2023-02-13T02:17:05;99670.13;;;14.17;53.77
50368;BME280;36281;34.132;-118.018;2023-02-13T02:19:38;99674.31;;;14.13;54.63
50368;BME280;36281;34.132;-118.018;2023-02-13T02:28:30;99722.84;;;14.04;55.78
50368;BME280;36281;34.132;-118.018;2023-02-13T02:34:18;99707.84;;;13.98;55.90
50368;BME280;36281;34.132;-118.018;2023-02-13T02:37:06;99687.00;;;13.94;55.74
50368;BME280;36281;34.132;-118.018;2023-02-13T02:39:47;99687.47;;;13.91;55.79
50368;BME280;36281;34.132;-118.018;2023-02-13T02:42:29;99703.13;;;13.88;56.05
50368;BME280;36281;34.132;-118.018;2023-02-13T02:45:08;99711.00;;;13.83;56.71
50368;BME280;36281;34.132;-118.018;2023-02-13T02:47:46;99706.41;;;13.78;56.85
50368;BME280;36281;34.132;-118.018;2023-02-13T02:50:43;99707.31;;;13.72;56.86
50368;BME280;36281;34.132;-118.018;2023-02-13T02:53:20;99699.56;;;13.70;57.62
50368;BME280;36281;34.132;-118.018;2023-02-13T02:55:57;99707.00;;;13.68;58.27
50368;BME280;36281;34.132;-118.018;2023-02-13T02:58:32;99703.19;;;13.64;58.49
50368;BME280;36281;34.132;-118.018;2023-02-13T03:01:27;99717.09;;;13.55;58.96
50368;BME280;36281;34.132;-118.018;2023-02-13T03:04:19;99693.50;;;13.47;59.28
50368;BME280;36281;34.132;-118.018;2023-02-13T03:07:13;99678.25;;;13.42;59.62
50368;BME280;36281;34.132;-118.018;2023-02-13T03:09:45;99656.63;;;13.38;59.87
50368;BME280;36281;34.132;-118.018;2023-02-13T03:12:37;99649.56;;;13.32;59.89
50368;BME280;36281;34.132;-118.018;2023-02-13T03:15:26;99649.47;;;13.27;60.26
50368;BME280;36281;34.132;-118.018;2023-02-13T03:17:57;99660.59;;;13.24;60.28
50368;BME280;36281;34.132;-118.018;2023-02-13T03:20:47;99661.84;;;13.22;60.78
50368;BME280;36281;34.132;-118.018;2023-02-13T03:23:44;99650.88;;;13.18;61.11
50368;BME280;36281;34.132;-118.018;2023-02-13T03:26:36;99655.59;;;13.16;61.58
50368;BME280;36281;34.132;-118.018;2023-02-13T03:29:24;99650.97;;;13.11;62.10
50368;BME280;36281;34.132;-118.018;2023-02-13T03:32:25;99653.53;;;13.06;62.26
50368;BME280;36281;34.132;-118.018;2023-02-13T03:35:03;99673.41;;;13.04;62.68
50368;BME280;36281;34.132;-118.018;2023-02-13T03:37:57;99673.31;;;12.99;62.67
50368;BME280;36281;34.132;-118.018;2023-02-13T03:40:34;99689.72;;;12.96;62.91
50368;BME280;36281;34.132;-118.018;2023-02-13T03:43:09;99688.56;;;12.91;63.40
50368;BME280;36281;34.132;-118.018;2023-02-13T03:45:43;99689.59;;;12.90;63.78
50368;BME280;36281;34.132;-118.018;2023-02-13T03:48:26;99692.13;;;12.85;63.80
50368;BME280;36281;34.132;-118.018;2023-02-13T03:51:20;99708.78;;;12.81;63.87
50368;BME280;36281;34.132;-118.018;2023-02-13T03:53:55;99701.50;;;12.76;64.41
50368;BME280;36281;34.132;-118.018;2023-02-13T03:56:27;99715.47;;;12.72;64.25
50368;BME280;36281;34.132;-118.018;2023-02-13T03:59:21;99718.22;;;12.65;64.90
50368;BME280;36281;34.132;-118.018;2023-02-13T04:01:59;99721.81;;;12.59;64.97
50368;BME280;36281;34.132;-118.018;2023-02-13T04:04:36;99728.59;;;12.55;65.53
50368;BME280;36281;34.132;-118.018;2023-02-13T04:07:10;99740.72;;;12.51;65.51
50368;BME280;36281;34.132;-118.018;2023-02-13T04:09:42;99726.50;;;12.45;65.77
50368;BME280;36281;34.132;-118.018;2023-02-13T04:12:17;99739.41;;;12.41;66.20
50368;BME280;36281;34.132;-118.018;2023-02-13T04:14:52;99747.13;;;12.31;66.08
50368;BME280;36281;34.132;-118.018;2023-02-13T04:17:32;99750.44;;;12.27;66.38
50368;BME280;36281;34.132;-118.018;2023-02-13T04:20:05;99766.84;;;12.24;67.05
50368;BME280;36281;34.132;-118.018;2023-02-13T04:22:41;99760.72;;;12.23;67.47
50368;BME280;36281;34.132;-118.018;2023-02-13T04:25:11;99752.97;;;12.22;67.69
50368;BME280;36281;34.132;-118.018;2023-02-13T04:27:42;99754.69;;;12.16;67.71
50368;BME280;36281;34.132;-118.018;2023-02-13T04:32:41;99740.22;;;12.12;68.18
50368;BME280;36281;34.132;-118.018;2023-02-13T04:35:11;99729.84;;;12.10;68.20
50368;BME280;36281;34.132;-118.018;2023-02-13T04:37:44;99716.81;;;12.09;68.33
50368;BME280;36281;34.132;-118.018;2023-02-13T04:40:13;99696.00;;;12.06;68.46
50368;BME280;36281;34.132;-118.018;2023-02-13T04:42:46;99684.59;;;12.05;68.68
50368;BME280;36281;34.132;-118.018;2023-02-13T04:45:16;99673.38;;;12.03;68.68
50368;BME280;36281;34.132;-118.018;2023-02-13T04:47:49;99685.50;;;11.99;68.86
50368;BME280;36281;34.132;-118.018;2023-02-13T04:50:19;99676.13;;;11.97;69.32
50368;BME280;36281;34.132;-118.018;2023-02-13T04:52:52;99665.50;;;11.97;69.14
50368;BME280;36281;34.132;-118.018;2023-02-13T04:55:22;99665.50;;;11.97;69.23
50368;BME280;36281;34.132;-118.018;2023-02-13T04:57:53;99645.56;;;11.94;69.31
50368;BME280;36281;34.132;-118.018;2023-02-13T05:00:24;99652.91;;;11.92;69.02
50368;BME280;36281;34.132;-118.018;2023-02-13T05:02:54;99632.72;;;11.91;69.12
50368;BME280;36281;34.132;-118.018;2023-02-13T05:05:28;99622.56;;;11.88;68.97
50368;BME280;36281;34.132;-118.018;2023-02-13T05:07:57;99637.09;;;11.85;69.46
50368;BME280;36281;34.132;-118.018;2023-02-13T05:10:26;99627.94;;;11.81;69.18
50368;BME280;36281;34.132;-118.018;2023-02-13T05:12:56;99606.56;;;11.76;69.71
50368;BME280;36281;34.132;-118.018;2023-02-13T05:15:26;99625.59;;;11.73;69.69
50368;BME280;36281;34.132;-118.018;2023-02-13T05:17:55;99643.00;;;11.69;69.87
50368;BME280;36281;34.132;-118.018;2023-02-13T05:20:24;99632.03;;;11.65;69.95
50368;BME280;36281;34.132;-118.018;2023-02-13T05:22:53;99642.88;;;11.64;69.74
50368;BME280;36281;34.132;-118.018;2023-02-13T05:25:41;99648.03;;;11.59;69.82
50368;BME280;36281;34.132;-118.018;2023-02-13T05:28:12;99636.44;;;11.53;70.27
50368;BME280;36281;34.132;-118.018;2023-02-13T05:30:59;99613.84;;;11.51;69.89
50368;BME280;36281;34.132;-118.018;2023-02-13T05:33:28;99585.91;;;11.48;70.15
50368;BME280;36281;34.132;-118.018;2023-02-13T05:35:57;99588.66;;;11.42;69.90
50368;BME280;36281;34.132;-118.018;2023-02-13T05:38:26;99594.06;;;11.35;70.56
50368;BME280;36281;34.132;-118.018;2023-02-13T05:40:58;99606.38;;;11.29;70.67
50368;BME280;36281;34.132;-118.018;2023-02-13T05:43:29;99592.97;;;11.24;71.51
50368;BME280;36281;34.132;-118.018;2023-02-13T05:46:03;99580.97;;;11.22;71.65
50368;BME280;36281;34.132;-118.018;2023-02-13T05:48:32;99611.59;;;11.18;71.78
50368;BME280;36281;34.132;-118.018;2023-02-13T05:51:01;99608.38;;;11.16;72.14
50368;BME280;36281;34.132;-118.018;2023-02-13T05:53:30;99584.75;;;11.14;72.22
50368;BME280;36281;34.132;-118.018;2023-02-13T05:56:03;99595.78;;;11.11;72.31
50368;BME280;36281;34.132;-118.018;2023-02-13T05:58:34;99595.19;;;11.09;72.33
50368;BME280;36281;34.132;-118.018;2023-02-13T06:01:03;99607.25;;;11.05;72.57
50368;BME280;36281;34.132;-118.018;2023-02-13T06:03:33;99609.91;;;11.05;72.56
50368;BME280;36281;34.132;-118.018;2023-02-13T06:06:02;99610.34;;;11.02;72.75
50368;BME280;36281;34.132;-118.018;2023-02-13T06:08:31;99619.34;;;11.01;72.77
50368;BME280;36281;34.132;-118.018;2023-02-13T06:11:00;99623.22;;;10.98;72.93
50368;BME280;36281;34.132;-118.018;2023-02-13T06:13:30;99617.34;;;10.96;73.08
50368;BME280;36281;34.132;-118.018;2023-02-13T06:16:00;99620.22;;;10.95;72.98
50368;BME280;36281;34.132;-118.018;2023-02-13T06:18:29;99616.16;;;10.92;73.09
50368;BME280;36281;34.132;-118.018;2023-02-13T06:20:59;99623.94;;;10.87;72.73
50368;BME280;36281;34.132;-118.018;2023-02-13T06:23:28;99627.88;;;10.84;72.94
50368;BME280;36281;34.132;-118.018;2023-02-13T06:26:01;99647.06;;;10.80;72.93
50368;BME280;36281;34.132;-118.018;2023-02-13T06:28:30;99639.78;;;10.75;73.14
50368;BME280;36281;34.132;-118.018;2023-02-13T06:31:01;99657.69;;;10.73;72.81
50368;BME280;36281;34.132;-118.018;2023-02-13T06:33:30;99659.19;;;10.69;73.19
50368;BME280;36281;34.132;-118.018;2023-02-13T06:36:00;99675.91;;;10.63;73.51
50368;BME280;36281;34.132;-118.018;2023-02-13T06:38:29;99689.38;;;10.61;73.60
50368;BME280;36281;34.132;-118.018;2023-02-13T06:41:00;99693.25;;;10.59;73.64
50368;BME280;36281;34.132;-118.018;2023-02-13T06:43:32;99697.16;;;10.56;73.41
50368;BME280;36281;34.132;-118.018;2023-02-13T06:46:06;99699.22;;;10.54;73.48
50368;BME280;36281;34.132;-118.018;2023-02-13T06:48:35;99704.72;;;10.53;73.60
50368;BME280;36281;34.132;-118.018;2023-02-13T06:51:05;99702.28;;;10.51;73.75
50368;BME280;36281;34.132;-118.018;2023-02-13T06:53:34;99696.19;;;10.51;73.82
50368;BME280;36281;34.132;-118.018;2023-02-13T06:56:04;99708.00;;;10.48;74.21
50368;BME280;36281;34.132;-118.018;2023-02-13T06:58:36;99730.00;;;10.49;74.49
50368;BME280;36281;34.132;-118.018;2023-02-13T07:01:09;99724.34;;;10.45;74.79
50368;BME280;36281;34.132;-118.018;2023-02-13T07:03:38;99722.72;;;10.44;75.08
50368;BME280;36281;34.132;-118.018;2023-02-13T07:06:07;99713.94;;;10.44;75.21
50368;BME280;36281;34.132;-118.018;2023-02-13T07:08:36;99724.34;;;10.45;75.52
50368;BME280;36281;34.132;-118.018;2023-02-13T07:11:05;99726.19;;;10.45;75.38
50368;BME280;36281;34.132;-118.018;2023-02-13T07:13:34;99722.13;;;10.42;75.62
50368;BME280;36281;34.132;-118.018;2023-02-13T07:16:04;99732.69;;;10.42;75.67
50368;BME280;36281;34.132;-118.018;2023-02-13T07:18:34;99742.47;;;10.42;75.81
50368;BME280;36281;34.132;-118.018;2023-02-13T07:21:05;99737.19;;;10.42;75.73
50368;BME280;36281;34.132;-118.018;2023-02-13T07:23:34;99742.06;;;10.45;76.13
50368;BME280;36281;34.132;-118.018;2023-02-13T07:26:03;99741.25;;;10.44;76.08
50368;BME280;36281;34.132;-118.018;2023-02-13T07:28:32;99745.53;;;10.45;76.18
50368;BME280;36281;34.132;-118.018;2023-02-13T07:31:03;99748.75;;;10.47;76.31
50368;BME280;36281;34.132;-118.018;2023-02-13T07:33:35;99739.78;;;10.48;76.61
50368;BME280;36281;34.132;-118.018;2023-02-13T07:36:05;99753.41;;;10.52;76.48
50368;BME280;36281;34.132;-118.018;2023-02-13T07:38:34;99763.59;;;10.55;76.55
50368;BME280;36281;34.132;-118.018;2023-02-13T07:41:03;99777.00;;;10.60;76.75
50368;BME280;36281;34.132;-118.018;2023-02-13T07:43:32;99765.78;;;10.65;76.78
50368;BME280;36281;34.132;-118.018;2023-02-13T07:46:02;99769.81;;;10.67;76.66
50368;BME280;36281;34.132;-118.018;2023-02-13T07:48:31;99759.38;;;10.72;76.86
50368;BME280;36281;34.132;-118.018;2023-02-13T07:51:03;99766.09;;;10.75;76.88
50368;BME280;36281;34.132;-118.018;2023-02-13T07:53:32;99763.00;;;10.78;76.74
50368;BME280;36281;34.132;-118.018;2023-02-13T07:56:05;99753.59;;;10.82;76.48
50368;BME280;36281;34.132;-118.018;2023-02-13T07:58:35;99757.22;;;10.87;76.75
50368;BME280;36281;34.132;-118.018;2023-02-13T08:01:07;99751.06;;;10.94;76.63
50368;BME280;36281;34.132;-118.018;2023-02-13T08:03:37;99747.75;;;10.98;76.63
50368;BME280;36281;34.132;-118.018;2023-02-13T08:06:08;99748.94;;;11.02;76.61
50368;BME280;36281;34.132;-118.018;2023-02-13T08:08:37;99754.03;;;11.04;76.74
50368;BME280;36281;34.132;-118.018;2023-02-13T08:11:07;99740.59;;;11.05;76.54
50368;BME280;36281;34.132;-118.018;2023-02-13T08:13:59;99752.56;;;11.08;76.33
50368;BME280;36281;34.132;-118.018;2023-02-13T08:16:28;99777.84;;;11.10;76.10
50368;BME280;36281;34.132;-118.018;2023-02-13T08:18:57;99785.16;;;11.15;76.35
50368;BME280;36281;34.132;-118.018;2023-02-13T08:21:27;99799.78;;;11.18;76.15
50368;BME280;36281;34.132;-118.018;2023-02-13T08:23:56;99799.38;;;11.21;76.14
50368;BME280;36281;34.132;-118.018;2023-02-13T08:26:26;99803.41;;;11.23;75.72
50368;BME280;36281;34.132;-118.018;2023-02-13T08:28:55;99807.72;;;11.24;75.79
50368;BME280;36281;34.132;-118.018;2023-02-13T08:31:24;99802.19;;;11.26;75.66
50368;BME280;36281;34.132;-118.018;2023-02-13T08:33:55;99793.81;;;11.29;75.31
50368;BME280;36281;34.132;-118.018;2023-02-13T08:36:27;99805.78;;;11.31;75.48
50368;BME280;36281;34.132;-118.018;2023-02-13T08:38:56;99807.22;;;11.34;75.04
50368;BME280;36281;34.132;-118.018;2023-02-13T08:41:25;99789.00;;;11.37;74.87
50368;BME280;36281;34.132;-118.018;2023-02-13T08:43:54;99772.44;;;11.42;74.58
50368;BME280;36281;34.132;-118.018;2023-02-13T08:46:23;99804.03;;;11.44;74.31
50368;BME280;36281;34.132;-118.018;2023-02-13T08:48:52;99810.53;;;11.48;74.27
50368;BME280;36281;34.132;-118.018;2023-02-13T08:51:22;99805.59;;;11.51;73.88
50368;BME280;36281;34.132;-118.018;2023-02-13T08:53:52;99797.22;;;11.54;74.21
50368;BME280;36281;34.132;-118.018;2023-02-13T08:56:22;99775.34;;;11.59;73.70
50368;BME280;36281;34.132;-118.018;2023-02-13T08:58:51;99794.50;;;11.61;73.44
50368;BME280;36281;34.132;-118.018;2023-02-13T09:01:20;99817.34;;;11.62;73.58
50368;BME280;36281;34.132;-118.018;2023-02-13T09:03:51;99804.69;;;11.64;73.94
50368;BME280;36281;34.132;-118.018;2023-02-13T09:06:20;99809.16;;;11.63;74.33
50368;BME280;36281;34.132;-118.018;2023-02-13T09:08:52;99785.88;;;11.65;74.05
50368;BME280;36281;34.132;-118.018;2023-02-13T09:11:21;99782.19;;;11.67;74.39
50368;BME280;36281;34.132;-118.018;2023-02-13T09:13:52;99783.22;;;11.65;74.22
50368;BME280;36281;34.132;-118.018;2023-02-13T09:16:21;99801.19;;;11.63;74.10
50368;BME280;36281;34.132;-118.018;2023-02-13T09:18:51;99768.53;;;11.63;74.04
50368;BME280;36281;34.132;-118.018;2023-02-13T09:21:21;99761.63;;;11.62;73.65
50368;BME280;36281;34.132;-118.018;2023-02-13T09:23:52;99762.66;;;11.61;73.98
50368;BME280;36281;34.132;-118.018;2023-02-13T09:26:22;99762.09;;;11.59;74.06
50368;BME280;36281;34.132;-118.018;2023-02-13T09:28:51;99766.78;;;11.57;73.59
50368;BME280;36281;34.132;-118.018;2023-02-13T09:31:20;99762.13;;;11.52;73.73
50368;BME280;36281;34.132;-118.018;2023-02-13T09:33:53;99772.41;;;11.49;73.42
50368;BME280;36281;34.132;-118.018;2023-02-13T09:36:23;99757.13;;;11.44;73.55
50368;BME280;36281;34.132;-118.018;2023-02-13T09:38:55;99755.94;;;11.40;73.34
50368;BME280;36281;34.132;-118.018;2023-02-13T09:41:26;99766.19;;;11.36;73.61
50368;BME280;36281;34.132;-118.018;2023-02-13T09:43:58;99790.69;;;11.32;73.36
50368;BME280;36281;34.132;-118.018;2023-02-13T09:46:33;99746.28;;;11.27;73.50
50368;BME280;36281;34.132;-118.018;2023-02-13T09:49:06;99754.69;;;11.24;73.69
50368;BME280;36281;34.132;-118.018;2023-02-13T09:51:36;99752.06;;;11.18;73.64
50368;BME280;36281;34.132;-118.018;2023-02-13T09:54:11;99743.53;;;11.16;73.96
50368;BME280;36281;34.132;-118.018;2023-02-13T09:56:47;99739.47;;;11.13;74.21
50368;BME280;36281;34.132;-118.018;2023-02-13T09:59:31;99755.38;;;11.13;74.28
50368;BME280;36281;34.132;-118.018;2023-02-13T10:02:18;99738.31;;;11.09;74.18
50368;BME280;36281;34.132;-118.018;2023-02-13T10:04:58;99724.22;;;11.08;74.65
50368;BME280;36281;34.132;-118.018;2023-02-13T10:07:38;99745.88;;;11.05;74.29
50368;BME280;36281;34.132;-118.018;2023-02-13T10:10:18;99749.75;;;11.03;74.59
50368;BME280;36281;34.132;-118.018;2023-02-13T10:12:58;99730.63;;;11.01;74.62
50368;BME280;36281;34.132;-118.018;2023-02-13T10:15:36;99733.50;;;10.99;74.41
50368;BME280;36281;34.132;-118.018;2023-02-13T10:18:12;99727.00;;;10.95;74.19
50368;BME280;36281;34.132;-118.018;2023-02-13T10:20:46;99707.28;;;10.91;74.18
50368;BME280;36281;34.132;-118.018;2023-02-13T10:23:21;99706.69;;;10.89;73.92
50368;BME280;36281;34.132;-118.018;2023-02-13T10:25:57;99716.28;;;10.83;73.76
50368;BME280;36281;34.132;-118.018;2023-02-13T10:28:37;99717.56;;;10.81;73.32
50368;BME280;36281;34.132;-118.018;2023-02-13T10:31:10;99713.94;;;10.75;73.68
50368;BME280;36281;34.132;-118.018;2023-02-13T10:33:46;99689.31;;;10.68;73.68
50368;BME280;36281;34.132;-118.018;2023-02-13T10:36:19;99677.75;;;10.63;73.42
50368;BME280;36281;34.132;-118.018;2023-02-13T10:38:56;99679.44;;;10.57;73.19
50368;BME280;36281;34.132;-118.018;2023-02-13T10:41:39;99675.81;;;10.51;73.69
50368;BME280;36281;34.132;-118.018;2023-02-13T10:44:25;99664.25;;;10.46;73.67
50368;BME280;36281;34.132;-118.018;2023-02-13T10:47:07;99678.38;;;10.40;73.81
50368;BME280;36281;34.132;-118.018;2023-02-13T10:49:55;99679.41;;;10.32;74.42
50368;BME280;36281;34.132;-118.018;2023-02-13T10:52:38;99676.38;;;10.28;74.50
50368;BME280;36281;34.132;-118.018;2023-02-13T10:55:32;99685.97;;;10.23;74.50
50368;BME280;36281;34.132;-118.018;2023-02-13T10:58:13;99684.19;;;10.17;74.52
50368;BME280;36281;34.132;-118.018;2023-02-13T11:00:48;99683.59;;;10.15;74.85
50368;BME280;36281;34.132;-118.018;2023-02-13T11:03:21;99705.97;;;10.12;74.78
50368;BME280;36281;34.132;-118.018;2023-02-13T11:05:52;99719.63;;;10.09;75.24
50368;BME280;36281;34.132;-118.018;2023-02-13T11:08:22;99734.09;;;10.06;75.60
50368;BME280;36281;34.132;-118.018;2023-02-13T11:10:52;99727.59;;;10.02;75.73
50368;BME280;36281;34.132;-118.018;2023-02-13T11:13:25;99721.72;;;10.00;75.91
50368;BME280;36281;34.132;-118.018;2023-02-13T11:16:00;99722.94;;;9.98;75.80
50368;BME280;36281;34.132;-118.018;2023-02-13T11:18:31;99717.25;;;9.94;75.57
50368;BME280;36281;34.132;-118.018;2023-02-13T11:21:06;99709.75;;;9.91;75.45
50368;BME280;36281;34.132;-118.018;2023-02-13T11:23:43;99710.38;;;9.87;75.62
50368;BME280;36281;34.132;-118.018;2023-02-13T11:26:13;99722.81;;;9.79;75.72
50368;BME280;36281;34.132;-118.018;2023-02-13T11:28:52;99710.66;;;9.72;75.90
50368;BME280;36281;34.132;-118.018;2023-02-13T11:31:28;99725.31;;;9.68;76.10
50368;BME280;36281;34.132;-118.018;2023-02-13T11:33:58;99734.69;;;9.64;76.56
50368;BME280;36281;34.132;-118.018;2023-02-13T11:36:29;99740.19;;;9.62;76.78
50368;BME280;36281;34.132;-118.018;2023-02-13T11:39:00;99734.31;;;9.60;77.23
50368;BME280;36281;34.132;-118.018;2023-02-13T11:41:31;99748.75;;;9.57;77.25
50368;BME280;36281;34.132;-118.018;2023-02-13T11:44:19;99749.75;;;9.56;77.11
50368;BME280;36281;34.132;-118.018;2023-02-13T11:46:51;99745.69;;;9.54;77.14
50368;BME280;36281;34.132;-118.018;2023-02-13T11:49:22;99753.25;;;9.50;76.75
50368;BME280;36281;34.132;-118.018;2023-02-13T11:51:53;99752.44;;;9.43;76.91
50368;BME280;36281;34.132;-118.018;2023-02-13T11:54:28;99744.94;;;9.40;77.20
50368;BME280;36281;34.132;-118.018;2023-02-13T11:57:00;99746.13;;;9.38;77.31
50368;BME280;36281;34.132;-118.018;2023-02-13T11:59:42;99733.31;;;9.35;77.17
50368;BME280;36281;34.132;-118.018;2023-02-13T12:02:15;99728.25;;;9.33;77.44
50368;BME280;36281;34.132;-118.018;2023-02-13T12:04:46;99732.13;;;9.30;77.48
50368;BME280;36281;34.132;-118.018;2023-02-13T12:07:19;99731.53;;;9.28;77.38
50368;BME280;36281;34.132;-118.018;2023-02-13T12:09:52;99719.53;;;9.26;77.17
50368;BME280;36281;34.132;-118.018;2023-02-13T12:12:26;99723.41;;;9.23;77.26
50368;BME280;36281;34.132;-118.018;2023-02-13T12:15:01;99715.91;;;9.20;77.17
50368;BME280;36281;34.132;-118.018;2023-02-13T12:17:31;99732.38;;;9.16;77.19
50368;BME280;36281;34.132;-118.018;2023-02-13T12:20:02;99727.69;;;9.11;77.28
50368;BME280;36281;34.132;-118.018;2023-02-13T12:22:40;99723.63;;;9.09;77.66
50368;BME280;36281;34.132;-118.018;2023-02-13T12:25:38;99741.72;;;9.05;77.71
50368;BME280;36281;34.132;-118.018;2023-02-13T12:28:12;99736.84;;;9.02;77.95
50368;BME280;36281;34.132;-118.018;2023-02-13T12:31:15;99744.16;;;9.00;78.11
50368;BME280;36281;34.132;-118.018;2023-02-13T12:37:07;99729.53;;;8.91;77.74
50368;BME280;36281;34.132;-118.018;2023-02-13T12:39:47;99725.47;;;8.88;77.27
50368;BME280;36281;34.132;-118.018;2023-02-13T12:42:31;99726.69;;;8.86;77.12
50368;BME280;36281;34.132;-118.018;2023-02-13T12:45:19;99732.16;;;8.84;76.72
50368;BME280;36281;34.132;-118.018;2023-02-13T12:48:05;99725.47;;;8.82;77.26
50368;BME280;36281;34.132;-118.018;2023-02-13T12:50:56;99728.50;;;8.78;77.13
50368;BME280;36281;34.132;-118.018;2023-02-13T12:53:45;99725.66;;;8.73;77.10
50368;BME280;36281;34.132;-118.018;2023-02-13T12:56:43;99729.72;;;8.69;77.03
50368;BME280;36281;34.132;-118.018;2023-02-13T12:59:18;99727.31;;;8.68;77.06
50368;BME280;36281;34.132;-118.018;2023-02-13T13:02:09;99739.47;;;8.62;77.26
50368;BME280;36281;34.132;-118.018;2023-02-13T13:04:55;99731.34;;;8.57;77.23
50368;BME280;36281;34.132;-118.018;2023-02-13T13:07:54;99729.09;;;8.54;76.98
50368;BME280;36281;34.132;-118.018;2023-02-13T13:10:46;99723.03;;;8.47;77.23
50368;BME280;36281;34.132;-118.018;2023-02-13T13:13:26;99745.34;;;8.44;77.38
50368;BME280;36281;34.132;-118.018;2023-02-13T13:16:07;99766.88;;;8.41;77.62
50368;BME280;36281;34.132;-118.018;2023-02-13T13:18:47;99788.78;;;8.42;77.89
50368;BME280;36281;34.132;-118.018;2023-02-13T13:21:29;99788.78;;;8.42;77.77